createdAt,value
2023-03-25T00:02:20.446Z,75.57
2023-03-25T00:04:51.027Z,74.70
2023-03-25T00:07:18.727Z,74.82
2023-03-25T00:09:45.839Z,73.58
2023-03-25T00:12:14.426Z,74.30
2023-03-25T00:14:41.283Z,73.95
2023-03-25T00:17:08.544Z,72.83
2023-03-25T00:19:36.725Z,73.67
2023-03-25T00:22:03.504Z,73.38
2023-03-25T00:24:30.382Z,72.46
2023-03-25T00:26:57.101Z,70.57
2023-03-25T00:29:24.069Z,71.79
2023-03-25T00:31:50.905Z,71.76
2023-03-25T00:34:17.708Z,73.05
2023-03-25T00:36:46.172Z,72.04
2023-03-25T00:39:12.980Z,71.95
2023-03-25T00:41:39.786Z,71.84
2023-03-25T00:44:06.794Z,71.66
2023-03-25T00:46:34.965Z,71.42
2023-03-25T00:49:01.871Z,71.96
2023-03-25T00:51:29.736Z,71.47
2023-03-25T00:53:59.935Z,70.52
2023-03-25T00:56:28.971Z,71.04
2023-03-25T00:58:56.823Z,71.19
2023-03-25T01:01:26.831Z,71.65
2023-03-25T01:03:55.747Z,71.81
2023-03-25T01:06:22.559Z,72.37
2023-03-25T01:08:52.797Z,72.92
2023-03-25T01:11:25.395Z,73.29
2023-03-25T01:13:54.588Z,73.77
2023-03-25T01:16:21.553Z,72.87
2023-03-25T01:18:48.527Z,73.37
2023-03-25T01:21:16.323Z,73.11
2023-03-25T01:23:43.620Z,73.32
2023-03-25T01:26:11.244Z,72.60
2023-03-25T01:28:40.914Z,72.04
2023-03-25T01:31:10.405Z,71.47
2023-03-25T01:33:37.705Z,72.38
2023-03-25T01:36:06.961Z,75.20
2023-03-25T01:38:34.600Z,76.58
2023-03-25T01:41:01.427Z,76.27
2023-03-25T01:43:28.233Z,75.53
2023-03-25T01:45:56.387Z,76.16
2023-03-25T01:48:29.199Z,74.91
2023-03-25T01:51:05.461Z,75.38
2023-03-25T01:53:33.458Z,75.67
2023-03-25T01:56:05.694Z,75.72
2023-03-25T01:58:35.916Z,74.90
2023-03-25T02:01:04.778Z,74.96
2023-03-25T02:03:32.235Z,74.98
2023-03-25T02:06:04.890Z,73.48
2023-03-25T02:08:37.002Z,73.04
2023-03-25T02:11:05.316Z,72.20
2023-03-25T02:13:36.441Z,71.73
2023-03-25T02:16:27.919Z,72.01
2023-03-25T02:19:22.932Z,71.78
2023-03-25T02:22:26.137Z,73.23
2023-03-25T02:25:30.542Z,72.10
2023-03-25T02:28:09.193Z,73.41
2023-03-25T02:31:13.369Z,76.11
2023-03-25T02:34:12.928Z,71.10
2023-03-25T02:37:03.864Z,71.81
2023-03-25T02:39:40.543Z,70.05
2023-03-25T02:42:20.497Z,71.19
2023-03-25T02:44:56.988Z,70.75
2023-03-25T02:47:29.468Z,74.05
2023-03-25T02:50:03.425Z,70.57
2023-03-25T02:52:36.148Z,70.27
2023-03-25T02:55:10.742Z,70.07
2023-03-25T02:57:44.880Z,71.38
2023-03-25T03:00:17.667Z,71.14
2023-03-25T03:02:52.081Z,71.63
2023-03-25T03:05:26.722Z,72.66
2023-03-25T03:08:07.790Z,70.67
2023-03-25T03:10:48.991Z,70.29
2023-03-25T03:13:33.065Z,70.50
2023-03-25T03:16:12.249Z,71.78
2023-03-25T03:18:51.174Z,71.20
2023-03-25T03:21:28.033Z,72.98
2023-03-25T03:24:02.654Z,73.29
2023-03-25T03:26:41.625Z,73.46
2023-03-25T03:29:16.570Z,74.19
2023-03-25T03:32:05.806Z,74.91
2023-03-25T03:34:46.504Z,75.15
2023-03-25T03:37:20.856Z,74.75
2023-03-25T03:39:50.726Z,75.68
2023-03-25T03:42:29.848Z,76.12
2023-03-25T03:45:05.760Z,75.43
2023-03-25T03:47:42.829Z,75.45
2023-03-25T03:50:15.958Z,76.66
2023-03-25T03:52:52.532Z,75.58
2023-03-25T03:55:26.511Z,75.13
2023-03-25T03:58:00.860Z,75.26
2023-03-25T04:00:35.775Z,74.93
2023-03-25T04:03:11.939Z,74.35
2023-03-25T04:05:43.517Z,73.05
2023-03-25T04:08:18.549Z,74.00
2023-03-25T04:10:55.114Z,73.72
2023-03-25T04:13:28.524Z,73.91
2023-03-25T04:15:57.940Z,74.45
2023-03-25T04:18:24.916Z,75.11
2023-03-25T04:20:51.856Z,73.45
2023-03-25T04:23:18.662Z,72.91
2023-03-25T04:25:45.704Z,72.32
2023-03-25T04:28:12.869Z,71.79
2023-03-25T04:30:41.188Z,72.74
2023-03-25T04:33:08.844Z,73.47
2023-03-25T04:35:36.071Z,73.66
2023-03-25T04:38:02.851Z,72.30
2023-03-25T04:40:29.765Z,71.94
2023-03-25T04:42:57.010Z,72.75
2023-03-25T04:45:24.360Z,71.88
2023-03-25T04:47:53.931Z,69.46
2023-03-25T04:50:24.521Z,68.92
2023-03-25T04:52:52.856Z,68.48
2023-03-25T04:55:20.331Z,70.74
2023-03-25T04:57:49.863Z,68.80
2023-03-25T05:00:20.952Z,70.37
2023-03-25T05:02:50.647Z,69.01
2023-03-25T05:05:21.869Z,69.07
2023-03-25T05:07:51.823Z,69.03
2023-03-25T05:10:22.456Z,69.82
2023-03-25T05:12:50.016Z,70.55
2023-03-25T05:15:17.475Z,71.42
2023-03-25T05:17:44.925Z,70.95
2023-03-25T05:20:12.940Z,71.16
2023-03-25T05:22:41.165Z,71.09
2023-03-25T05:25:10.404Z,71.60
2023-03-25T05:27:38.784Z,71.85
2023-03-25T05:30:08.370Z,71.71
2023-03-25T05:32:35.478Z,71.67
2023-03-25T05:35:03.898Z,71.53
2023-03-25T05:37:31.269Z,72.57
2023-03-25T05:39:59.506Z,73.79
2023-03-25T05:42:26.482Z,74.78
2023-03-25T05:44:54.054Z,74.62
2023-03-25T05:47:23.950Z,74.68
2023-03-25T05:49:52.897Z,74.58
2023-03-25T05:52:21.142Z,72.98
2023-03-25T05:54:47.896Z,73.08
2023-03-25T05:57:16.545Z,72.36
2023-03-25T05:59:43.390Z,70.12
2023-03-25T06:02:14.035Z,70.47
2023-03-25T06:04:41.084Z,69.90
2023-03-25T06:07:08.951Z,69.45
2023-03-25T06:09:35.990Z,68.68
2023-03-25T06:12:02.908Z,68.34
2023-03-25T06:14:31.399Z,68.43
2023-03-25T06:16:58.327Z,67.34
2023-03-25T06:19:25.336Z,67.71
2023-03-25T06:21:52.362Z,67.79
2023-03-25T06:24:19.222Z,67.04
2023-03-25T06:26:46.129Z,66.69
2023-03-25T06:29:13.125Z,66.57
2023-03-25T06:31:41.342Z,66.66
2023-03-25T06:34:08.335Z,65.82
2023-03-25T06:36:35.167Z,65.94
2023-03-25T06:39:02.109Z,65.62
2023-03-25T06:41:29.417Z,65.76
2023-03-25T06:44:11.136Z,66.46
2023-03-25T06:46:48.505Z,67.28
2023-03-25T06:49:27.541Z,69.10
2023-03-25T06:51:56.051Z,69.75
2023-03-25T06:54:22.866Z,69.26
2023-03-25T06:56:49.790Z,69.68
2023-03-25T06:59:16.960Z,70.21
2023-03-25T07:01:43.846Z,70.47
2023-03-25T07:04:12.078Z,69.53
2023-03-25T07:06:40.767Z,70.49
2023-03-25T07:09:18.751Z,70.29
2023-03-25T07:11:45.611Z,68.74
2023-03-25T07:14:12.563Z,70.24
2023-03-25T07:16:39.586Z,69.23
2023-03-25T07:19:06.425Z,69.44
2023-03-25T07:21:34.625Z,69.38
2023-03-25T07:24:17.290Z,68.70
2023-03-25T07:26:45.439Z,69.75
2023-03-25T07:29:34.970Z,70.39
2023-03-25T07:32:29.635Z,70.53
2023-03-25T07:34:57.543Z,69.87
2023-03-25T07:38:21.744Z,69.63
2023-03-25T07:40:50.030Z,70.88
2023-03-25T07:47:09.355Z,71.39
2023-03-25T07:49:45.788Z,71.18
2023-03-25T07:52:13.066Z,70.20
2023-03-25T07:54:59.077Z,69.63
2023-03-25T07:57:42.488Z,68.88
2023-03-25T08:00:13.278Z,68.25
2023-03-25T08:02:40.674Z,68.23
2023-03-25T08:05:09.502Z,69.43
2023-03-25T08:07:36.510Z,68.31
2023-03-25T08:10:06.129Z,67.33
2023-03-25T08:12:32.961Z,67.94
2023-03-25T08:14:59.979Z,68.24
2023-03-25T08:17:27.279Z,67.65
2023-03-25T08:19:54.188Z,67.48
2023-03-25T08:22:21.122Z,67.26
2023-03-25T08:24:48.094Z,65.53
2023-03-25T08:27:16.553Z,65.50
2023-03-25T08:29:43.800Z,65.29
2023-03-25T08:32:10.924Z,63.93
2023-03-25T08:34:37.818Z,63.24
2023-03-25T08:37:04.764Z,63.97
2023-03-25T08:39:31.766Z,63.23
2023-03-25T08:41:58.597Z,62.14
2023-03-25T08:44:26.902Z,62.57
2023-03-25T08:46:53.709Z,61.51
2023-03-25T08:49:20.872Z,64.21
2023-03-25T08:51:48.018Z,63.20
2023-03-25T08:54:16.489Z,62.76
2023-03-25T08:56:43.401Z,62.06
2023-03-25T08:59:10.287Z,61.46
2023-03-25T09:01:38.896Z,60.89
2023-03-25T09:04:05.967Z,65.07
2023-03-25T09:06:47.914Z,68.35
2023-03-25T09:09:20.013Z,67.61
2023-03-25T09:11:46.868Z,68.64
2023-03-25T09:14:13.775Z,68.32
2023-03-25T09:20:59.281Z,66.17
2023-03-25T09:23:26.665Z,66.10
2023-03-25T09:25:53.633Z,64.75
2023-03-25T09:28:20.530Z,65.23
2023-03-25T09:30:47.392Z,63.19
2023-03-25T09:33:14.596Z,63.93
2023-03-25T09:35:41.612Z,64.11
2023-03-25T09:38:09.910Z,63.26
2023-03-25T09:40:36.936Z,64.69
2023-03-25T09:43:24.215Z,62.36
2023-03-25T09:45:53.227Z,61.48
2023-03-25T09:48:32.327Z,59.94
2023-03-25T09:51:04.098Z,61.56
2023-03-25T09:53:41.536Z,61.78
2023-03-25T09:56:17.465Z,61.43
2023-03-25T09:58:47.957Z,62.47
2023-03-25T10:01:28.491Z,63.52
2023-03-25T10:04:26.777Z,63.86
2023-03-25T10:07:10.224Z,65.52
2023-03-25T10:09:54.419Z,67.93
2023-03-25T10:12:37.122Z,67.53
2023-03-25T10:15:21.576Z,65.26
2023-03-25T10:18:21.811Z,62.09
2023-03-25T10:21:02.083Z,61.02
2023-03-25T10:23:38.695Z,61.83
2023-03-25T10:26:17.597Z,62.95
2023-03-25T10:28:56.307Z,62.18
2023-03-25T10:31:29.483Z,64.26
2023-03-25T10:34:04.096Z,64.77
2023-03-25T10:36:37.636Z,66.59
2023-03-25T10:39:17.299Z,64.29
2023-03-25T10:41:52.739Z,64.22
2023-03-25T10:44:25.121Z,59.96
2023-03-25T10:46:58.260Z,57.26
2023-03-25T10:49:29.871Z,56.54
2023-03-25T10:51:58.692Z,55.63
2023-03-25T10:54:31.251Z,54.59
2023-03-25T10:57:06.253Z,55.54
2023-03-25T10:59:40.103Z,57.83
2023-03-25T11:02:17.821Z,56.88
2023-03-25T11:04:48.126Z,57.53
2023-03-25T11:07:21.010Z,57.88
2023-03-25T11:09:49.610Z,57.67
2023-03-25T11:12:30.241Z,59.71
2023-03-25T11:15:07.565Z,57.66
2023-03-25T11:17:35.314Z,56.37
2023-03-25T11:20:16.590Z,52.98
2023-03-25T11:22:50.904Z,51.16
2023-03-25T11:25:25.120Z,49.35
2023-03-25T11:27:59.738Z,48.16
2023-03-25T11:30:26.802Z,47.47
2023-03-25T11:33:00.248Z,48.89
2023-03-25T11:35:31.342Z,49.49
2023-03-25T11:38:01.403Z,50.63
2023-03-25T11:40:30.761Z,49.90
2023-03-25T11:43:01.891Z,48.63
2023-03-25T11:45:35.743Z,48.80
2023-03-25T11:48:12.840Z,49.91
2023-03-25T11:50:47.740Z,50.18
2023-03-25T11:53:17.761Z,48.40
2023-03-25T11:55:49.679Z,47.52
2023-03-25T11:58:22.222Z,46.15
2023-03-25T12:00:51.329Z,46.74
2023-03-25T12:03:21.968Z,48.30
2023-03-25T12:06:03.524Z,48.51
2023-03-25T12:08:42.439Z,48.37
2023-03-25T12:11:16.359Z,46.38
2023-03-25T12:14:22.778Z,45.64
2023-03-25T12:17:01.324Z,46.47
2023-03-25T12:19:44.701Z,46.51
2023-03-25T12:22:29.914Z,44.54
2023-03-25T12:25:15.921Z,45.46
2023-03-25T12:28:02.654Z,45.68
2023-03-25T12:30:56.612Z,46.84
2023-03-25T12:33:46.055Z,48.73
2023-03-25T12:36:31.289Z,50.29
2023-03-25T12:39:42.708Z,51.81
2023-03-25T12:42:30.385Z,53.60
2023-03-25T12:45:21.156Z,54.60
2023-03-25T12:47:59.654Z,54.80
2023-03-25T12:50:42.855Z,54.80
2023-03-25T12:53:30.456Z,53.97
2023-03-25T12:56:19.459Z,53.89
2023-03-25T12:59:16.783Z,53.62
2023-03-25T13:01:58.275Z,53.58
2023-03-25T13:04:47.592Z,54.04
2023-03-25T13:07:20.852Z,52.84
2023-03-25T13:10:02.921Z,51.57
2023-03-25T13:12:37.630Z,50.58
2023-03-25T13:15:24.651Z,52.19
2023-03-25T13:17:59.851Z,52.80
2023-03-25T13:20:34.694Z,52.37
2023-03-25T13:23:07.913Z,50.60
2023-03-25T13:25:49.084Z,50.37
2023-03-25T13:28:23.901Z,49.77
2023-03-25T13:30:52.406Z,50.76
2023-03-25T13:33:24.329Z,51.87
2023-03-25T13:35:59.242Z,46.95
2023-03-25T13:38:32.085Z,46.38
2023-03-25T13:41:12.251Z,48.01
2023-03-25T13:43:56.009Z,48.35
2023-03-25T13:46:32.869Z,47.43
2023-03-25T13:49:06.553Z,46.20
2023-03-25T13:51:35.448Z,47.00
2023-03-25T13:54:12.139Z,47.38
2023-03-25T13:57:30.865Z,46.54
2023-03-25T14:00:37.154Z,46.00
2023-03-25T14:03:31.858Z,45.62
2023-03-25T14:06:39.014Z,44.31
2023-03-25T14:09:48.686Z,45.58
2023-03-25T14:12:20.951Z,47.33
2023-03-25T14:14:58.205Z,46.90
2023-03-25T14:17:28.550Z,48.48
2023-03-25T14:20:00.133Z,48.79
2023-03-25T14:22:32.149Z,49.14
2023-03-25T14:25:00.880Z,50.20
2023-03-25T14:27:31.619Z,48.43
2023-03-25T14:30:04.415Z,48.11
2023-03-25T14:32:35.994Z,46.64
2023-03-25T14:35:46.674Z,46.37
2023-03-25T14:38:51.665Z,45.49
2023-03-25T14:41:55.984Z,44.51
2023-03-25T14:44:29.079Z,43.76
2023-03-25T14:47:28.775Z,44.36
2023-03-25T14:50:05.297Z,44.98
2023-03-25T14:52:38.828Z,45.49
2023-03-25T14:55:14.808Z,45.72
2023-03-25T14:57:44.565Z,46.76
2023-03-25T15:00:22.875Z,46.54
2023-03-25T15:03:00.289Z,46.30
2023-03-25T15:05:31.492Z,46.38
2023-03-25T15:08:10.543Z,47.81
2023-03-25T15:10:41.073Z,47.58
2023-03-25T15:13:17.867Z,47.57
2023-03-25T15:16:01.171Z,47.59
2023-03-25T15:19:07.099Z,47.24
2023-03-25T15:22:20.613Z,47.43
2023-03-25T15:25:00.193Z,46.91
2023-03-25T15:27:59.520Z,47.01
2023-03-25T15:31:01.036Z,46.43
2023-03-25T15:33:57.664Z,45.79
2023-03-25T15:36:47.113Z,46.79
2023-03-25T15:39:46.801Z,46.52
2023-03-25T15:43:14.542Z,46.71
2023-03-25T15:46:32.976Z,45.10
2023-03-25T15:49:42.713Z,44.82
2023-03-25T15:52:35.100Z,44.08
2023-03-25T15:55:09.076Z,44.28
2023-03-25T15:57:43.985Z,44.37
2023-03-25T16:00:22.523Z,43.32
2023-03-25T16:02:59.415Z,43.02
2023-03-25T16:05:28.726Z,42.72
2023-03-25T16:08:04.937Z,43.01
2023-03-25T16:10:34.135Z,42.61
2023-03-25T16:13:05.122Z,43.15
2023-03-25T16:15:36.319Z,43.00
2023-03-25T16:18:09.564Z,42.79
2023-03-25T16:20:40.148Z,43.12
2023-03-25T16:23:19.873Z,42.56
2023-03-25T16:25:50.821Z,42.29
2023-03-25T16:28:23.318Z,42.10
2023-03-25T16:30:53.601Z,42.03
2023-03-25T16:33:28.242Z,42.22
2023-03-25T16:35:59.987Z,42.69
2023-03-25T16:38:31.035Z,43.47
2023-03-25T16:41:03.479Z,43.80
2023-03-25T16:43:31.582Z,45.17
2023-03-25T16:46:02.015Z,44.32
2023-03-25T16:48:32.894Z,44.51
2023-03-25T16:51:07.007Z,44.64
2023-03-25T16:53:38.148Z,45.68
2023-03-25T16:56:22.993Z,48.21
2023-03-25T16:59:01.274Z,49.88
2023-03-25T17:01:33.023Z,49.97
2023-03-25T17:04:14.394Z,50.15
2023-03-25T17:06:47.600Z,51.10
2023-03-25T17:09:19.895Z,51.42
2023-03-25T17:11:51.850Z,51.71
2023-03-25T17:14:24.382Z,52.76
2023-03-25T17:16:53.628Z,52.73
2023-03-25T17:19:25.806Z,52.56
2023-03-25T17:22:06.509Z,52.31
2023-03-25T17:24:48.870Z,52.30
2023-03-25T17:27:24.743Z,52.07
2023-03-25T17:29:54.519Z,52.32
2023-03-25T17:32:21.912Z,51.85
2023-03-25T17:35:03.969Z,51.87
2023-03-25T17:37:32.301Z,51.84
2023-03-25T17:40:06.087Z,52.09
2023-03-25T17:42:37.070Z,52.03
2023-03-25T17:45:06.475Z,52.24
2023-03-25T17:47:33.296Z,51.68
2023-03-25T17:50:13.972Z,52.18
2023-03-25T17:52:40.815Z,51.79
2023-03-25T17:55:10.331Z,51.65
2023-03-25T17:57:40.326Z,51.16
2023-03-25T18:00:13.926Z,50.54
2023-03-25T18:02:41.154Z,50.97
2023-03-25T18:05:11.338Z,50.43
2023-03-25T18:07:40.880Z,50.47
2023-03-25T18:10:20.487Z,50.55
2023-03-25T18:12:47.439Z,50.48
2023-03-25T18:15:15.712Z,50.68
2023-03-25T18:17:45.156Z,50.55
2023-03-25T18:20:21.583Z,50.66
2023-03-25T18:22:49.347Z,51.25
2023-03-25T18:25:18.484Z,50.93
2023-03-25T18:27:51.378Z,50.85
2023-03-25T18:30:25.660Z,51.04
2023-03-25T18:32:55.074Z,50.58
2023-03-25T18:35:23.161Z,50.62
2023-03-25T18:37:50.832Z,51.05
2023-03-25T18:40:24.990Z,51.01
2023-03-25T18:42:52.568Z,51.45
2023-03-25T18:45:21.242Z,51.61
2023-03-25T18:47:49.787Z,51.75
2023-03-25T18:50:28.553Z,51.94
2023-03-25T18:53:04.549Z,51.97
2023-03-25T18:55:38.905Z,52.08
2023-03-25T18:58:05.831Z,52.07
2023-03-25T19:00:39.154Z,53.00
2023-03-25T19:03:06.589Z,53.32
2023-03-25T19:05:33.874Z,53.04
2023-03-25T19:08:01.054Z,53.76
2023-03-25T19:10:31.123Z,54.35
2023-03-25T19:13:00.420Z,54.89
2023-03-25T19:15:29.843Z,56.08
2023-03-25T19:17:58.577Z,57.23
2023-03-25T19:20:28.748Z,57.89
2023-03-25T19:22:55.760Z,57.77
2023-03-25T19:25:22.619Z,57.67
2023-03-25T19:27:49.806Z,57.24
2023-03-25T19:30:21.071Z,57.40
2023-03-25T19:32:50.977Z,57.21
2023-03-25T19:35:19.980Z,57.09
2023-03-25T19:37:47.328Z,57.63
2023-03-25T19:40:17.445Z,57.58
2023-03-25T19:42:45.343Z,57.82
2023-03-25T19:45:14.832Z,58.34
2023-03-25T19:47:44.646Z,58.14
2023-03-25T19:50:39.761Z,58.22
2023-03-25T19:53:07.296Z,57.82
2023-03-25T19:55:36.979Z,57.94
2023-03-25T19:58:29.926Z,58.18
2023-03-25T20:01:05.373Z,58.77
2023-03-25T20:03:34.825Z,58.75
2023-03-25T20:06:03.567Z,59.02
2023-03-25T20:08:30.615Z,59.97
2023-03-25T20:10:57.868Z,59.88
2023-03-25T20:13:25.058Z,59.38
2023-03-25T20:15:52.971Z,60.01
2023-03-25T20:18:20.135Z,60.47
2023-03-25T20:20:48.299Z,60.27
2023-03-25T20:23:15.428Z,60.31
2023-03-25T20:25:42.468Z,60.85
2023-03-25T20:28:09.891Z,60.79
2023-03-25T20:30:37.033Z,60.48
2023-03-25T20:33:04.678Z,60.90
2023-03-25T20:35:32.584Z,60.53
2023-03-25T20:38:00.819Z,60.85
2023-03-25T20:40:41.431Z,63.47
2023-03-25T20:43:12.046Z,67.39
2023-03-25T20:45:39.404Z,69.55
2023-03-25T20:48:06.683Z,70.21
2023-03-25T20:50:33.543Z,70.11
2023-03-25T20:53:02.788Z,70.24
2023-03-25T20:55:29.811Z,70.48
2023-03-25T20:57:56.896Z,70.39
2023-03-25T21:00:23.779Z,68.32
2023-03-25T21:02:51.308Z,67.84
2023-03-25T21:05:18.358Z,68.36
2023-03-25T21:07:45.331Z,68.75
2023-03-25T21:10:13.579Z,68.63
2023-03-25T21:12:44.387Z,68.48
2023-03-25T21:15:13.815Z,70.36
2023-03-25T21:17:40.892Z,70.84
2023-03-25T21:20:10.685Z,70.01
2023-03-25T21:22:40.816Z,70.37
2023-03-25T21:25:08.693Z,72.23
2023-03-25T21:27:39.244Z,72.84
2023-03-25T21:30:09.167Z,74.81
2023-03-25T21:32:36.055Z,74.58
2023-03-25T21:35:03.488Z,76.37
2023-03-25T21:37:30.469Z,77.10
2023-03-25T21:39:57.464Z,77.86
2023-03-25T21:42:24.534Z,77.46
2023-03-25T21:44:52.776Z,77.83
2023-03-25T21:47:19.646Z,76.89
2023-03-25T21:49:46.496Z,76.66
2023-03-25T21:52:13.441Z,76.13
2023-03-25T21:54:40.267Z,75.39
2023-03-25T21:57:07.261Z,74.77
2023-03-25T21:59:34.344Z,74.57
2023-03-25T22:02:02.993Z,76.27
2023-03-25T22:04:29.928Z,77.13
2023-03-25T22:06:56.720Z,76.96
2023-03-25T22:09:23.507Z,77.22
2023-03-25T22:11:50.248Z,76.33
2023-03-25T22:14:16.998Z,77.09
2023-03-25T22:16:43.853Z,76.54
2023-03-25T22:19:12.509Z,76.65
2023-03-25T22:21:39.459Z,76.87
2023-03-25T22:24:08.141Z,77.63
2023-03-25T22:26:37.452Z,77.66
2023-03-25T22:29:07.841Z,77.48
2023-03-25T22:31:37.721Z,77.65
2023-03-25T22:34:05.735Z,79.71
2023-03-25T22:36:34.630Z,79.41
2023-03-25T22:39:01.643Z,79.15
2023-03-25T22:41:28.509Z,79.51
2023-03-25T22:43:55.529Z,80.13
2023-03-25T22:46:23.411Z,79.91
2023-03-25T22:48:50.693Z,79.40
2023-03-25T22:51:20.546Z,79.22
2023-03-25T22:53:48.918Z,78.20
2023-03-25T22:56:16.105Z,77.09
2023-03-25T22:58:43.010Z,76.98
2023-03-25T23:01:19.826Z,77.44
2023-03-25T23:03:47.250Z,77.31
2023-03-25T23:06:14.664Z,77.53
2023-03-25T23:08:42.959Z,77.21
2023-03-25T23:11:15.665Z,76.62
2023-03-25T23:13:52.689Z,77.38
2023-03-25T23:16:23.933Z,79.14
2023-03-25T23:18:51.530Z,79.75
2023-03-25T23:21:21.499Z,80.70
2023-03-25T23:23:53.106Z,81.31
2023-03-25T23:26:37.760Z,81.07
2023-03-25T23:29:07.582Z,80.85
2023-03-25T23:34:43.434Z,79.26
2023-03-25T23:37:10.416Z,79.51
2023-03-25T23:39:42.796Z,78.74
2023-03-25T23:42:17.623Z,79.67
2023-03-25T23:44:48.546Z,80.26
2023-03-25T23:47:18.619Z,79.60
2023-03-25T23:49:51.496Z,79.69
2023-03-25T23:52:27.615Z,79.67
2023-03-25T23:54:56.887Z,78.69
2023-03-25T23:57:31.124Z,78.38
